Time;durP1;ratioP1;P1;durP2;ratioP2;P2;SDS_P1;SDS_P2;PMS_P1;PMS_P2;Temp;Humidity;BMP_temperature;BMP_pressure;BME280_temperature;BME280_humidity;BME280_pressure;Samples;Min_cycle;Max_cycle;Signal;HPM_P1;HPM_P2
2023/09/23 08:15:37;;;;;;;3.80;2.45;;;;;;;12.24;77.96;92720.84;2044682;65;20227;-75
2023/09/23 08:18:03;;;;;;;2.83;2.10;;;;;;;12.31;77.90;92725.44;2031997;70;20195;-74
2023/09/23 08:20:29;;;;;;;3.47;2.72;;;;;;;12.25;77.38;92725.84;2031648;70;20190;-73
2023/09/23 08:22:55;;;;;;;2.67;2.28;;;;;;;11.93;78.56;92725.50;2031769;70;20259;-74
2023/09/23 08:25:23;;;;;;;3.88;2.72;;;;;;;12.17;77.96;92740.25;2032345;70;20156;-75
2023/09/23 08:27:50;;;;;;;3.08;2.30;;;;;;;11.87;77.65;92747.03;2031739;70;20168;-74
2023/09/23 08:30:21;;;;;;;2.35;2.13;;;;;;;11.66;78.36;92743.00;2030022;70;20168;-74
2023/09/23 08:32:51;;;;;;;2.60;2.20;;;;;;;12.13;77.83;92747.75;2025604;71;20182;-74
2023/09/23 08:35:17;;;;;;;3.28;2.20;;;;;;;12.47;76.36;92748.94;2025884;70;20246;-74
2023/09/23 08:38:14;;;;;;;2.42;2.05;;;;;;;12.20;77.00;92746.75;2025857;70;20636;-75
2023/09/23 08:40:43;;;;;;;5.82;2.25;;;;;;;12.25;76.09;92756.91;2025985;71;20137;-75
2023/09/23 08:43:08;;;;;;;4.03;2.50;;;;;;;12.38;76.43;92747.03;2026634;70;20193;-76
2023/09/23 08:45:43;;;;;;;3.17;2.20;;;;;;;12.54;75.90;92756.34;2029087;70;20691;-74
2023/09/23 08:48:11;;;;;;;2.47;2.00;;;;;;;12.31;76.05;92762.88;2028342;70;20159;-74
2023/09/23 08:50:42;;;;;;;2.47;1.95;;;;;;;12.36;75.88;92764.56;2028720;70;20144;-75
2023/09/23 08:53:08;;;;;;;2.67;2.10;;;;;;;12.37;76.15;92757.56;2029344;70;20149;-75
2023/09/23 08:55:35;;;;;;;2.33;1.80;;;;;;;12.59;75.63;92763.69;2028487;70;20168;-74
2023/09/23 08:58:10;;;;;;;2.65;1.90;;;;;;;12.44;76.09;92772.75;2029327;70;20167;-73
2023/09/23 09:00:39;;;;;;;2.38;2.13;;;;;;;12.48;76.16;92766.59;2029080;70;20161;-74
2023/09/23 09:03:06;;;;;;;2.13;1.77;;;;;;;12.37;76.79;92763.22;2029103;70;20184;-75
2023/09/23 09:05:39;;;;;;;3.90;2.28;;;;;;;12.39;77.08;92765.41;2028773;70;20152;-73
2023/09/23 09:08:09;;;;;;;2.90;2.42;;;;;;;12.23;77.53;92770.16;2028911;70;20160;-75
2023/09/23 09:10:35;;;;;;;2.88;2.22;;;;;;;12.04;78.36;92774.03;2028551;70;20152;-75
2023/09/23 09:13:05;;;;;;;3.00;2.20;;;;;;;12.57;76.78;92771.34;2028925;70;20148;-75
2023/09/23 09:15:33;;;;;;;4.63;2.30;;;;;;;12.78;75.78;92764.66;2028429;70;20144;-74
2023/09/23 09:18:00;;;;;;;3.15;2.40;;;;;;;12.86;75.47;92763.00;2029160;70;20189;-76
2023/09/23 09:20:27;;;;;;;3.35;2.22;;;;;;;13.14;75.09;92774.34;2028311;70;20157;-74
2023/09/23 09:22:52;;;;;;;3.25;2.17;;;;;;;12.92;75.30;92774.66;2028649;70;20160;-77
2023/09/23 09:25:20;;;;;;;3.95;2.33;;;;;;;13.09;74.24;92781.88;2028118;70;20176;-75
2023/09/23 09:27:53;;;;;;;3.60;2.22;;;;;;;13.21;73.58;92782.53;2027472;70;20168;-74
2023/09/23 09:30:19;;;;;;;;;;;;;;;13.40;72.84;92789.16;2029093;70;20248;-75
2023/09/23 09:32:47;;;;;;;2.88;2.20;;;;;;;13.47;73.43;92796.63;2029160;70;20148;-78
2023/09/23 09:35:16;;;;;;;2.55;2.20;;;;;;;13.39;73.08;92784.88;2029153;70;20161;-77
2023/09/23 09:37:47;;;;;;;5.60;2.28;;;;;;;13.48;73.75;92795.25;2028601;70;20202;-74
2023/09/23 09:40:23;;;;;;;2.10;1.90;;;;;;;13.59;73.58;92790.84;2029107;70;20183;-75
2023/09/23 09:42:54;;;;;;;15.88;2.58;;;;;;;13.54;72.42;92787.06;2029320;70;20133;-74
2023/09/23 09:45:21;;;;;;;3.83;2.28;;;;;;;13.55;74.40;92784.97;2028749;70;20202;-76
2023/09/23 09:47:48;;;;;;;3.55;2.55;;;;;;;13.02;73.96;92787.88;2028942;70;20249;-76
2023/09/23 09:50:15;;;;;;;3.90;2.50;;;;;;;13.22;73.63;92794.59;2028718;70;20222;-75
2023/09/23 09:52:44;;;;;;;3.08;2.28;;;;;;;13.56;72.38;92790.00;2028927;70;20681;-75
2023/09/23 09:55:20;;;;;;;2.78;2.00;;;;;;;13.71;72.86;92791.47;2026013;70;20129;-76
2023/09/23 09:57:48;;;;;;;4.53;1.80;;;;;;;13.77;71.94;92785.38;2030835;70;20145;-76
2023/09/23 10:03:05;;;;;;;2.95;1.63;;;;;;;13.72;71.60;92792.91;2029412;70;20132;-74
2023/09/23 10:05:36;;;;;;;2.45;1.60;;;;;;;13.92;72.08;92788.25;2031172;70;20168;-75
2023/09/23 10:08:18;;;;;;;3.53;1.80;;;;;;;13.99;70.01;92789.31;2029555;70;20159;-72
2023/09/23 10:10:57;;;;;;;3.10;1.90;;;;;;;14.14;71.72;92797.13;2029591;70;20634;-75
2023/09/23 10:13:27;;;;;;;3.88;1.75;;;;;;;14.11;70.85;92795.59;2028391;70;20298;-75
2023/09/23 10:16:12;;;;;;;2.30;1.65;;;;;;;14.13;71.00;92798.50;2026275;70;20193;-78
2023/09/23 10:18:41;;;;;;;2.63;1.70;;;;;;;14.18;70.65;92799.44;2026275;71;20156;-75
2023/09/23 10:21:20;;;;;;;3.10;1.90;;;;;;;14.22;71.68;92791.16;2026375;70;20575;-77
2023/09/23 10:23:47;;;;;;;2.33;1.80;;;;;;;14.38;71.21;92794.00;2026176;70;20179;-76
2023/09/23 10:26:18;;;;;;;2.83;1.90;;;;;;;14.40;71.16;92796.97;2026353;70;20601;-75
2023/09/23 10:28:54;;;;;;;5.50;2.58;;;;;;;14.46;71.41;92794.41;2025944;70;20191;-75
2023/09/23 10:31:25;;;;;;;11.70;6.68;;;;;;;14.55;71.63;92801.97;2025569;70;20610;-75
2023/09/23 10:33:51;;;;;;;5.60;2.70;;;;;;;14.45;70.35;92798.63;2025966;70;20140;-74
2023/09/23 10:36:21;;;;;;;2.60;1.75;;;;;;;14.14;70.34;92796.41;2025677;71;20523;-78
2023/09/23 10:38:48;;;;;;;3.42;2.00;;;;;;;14.21;70.63;92798.19;2026106;70;20240;-75
2023/09/23 10:41:14;;;;;;;4.28;2.40;;;;;;;14.42;70.17;92792.13;2026110;70;20192;-75
2023/09/23 10:43:40;;;;;;;2.78;2.20;;;;;;;14.53;69.95;92790.53;2025918;70;20681;-76
2023/09/23 10:46:08;;;;;;;3.47;2.42;;;;;;;14.51;69.82;92786.88;2029301;70;20148;-76
2023/09/23 10:48:34;;;;;;;2.10;1.65;;;;;;;14.44;69.85;92786.56;2029340;70;20228;-75
2023/09/23 10:51:01;;;;;;;2.65;1.75;;;;;;;14.51;69.27;92786.88;2027022;70;20152;-75
2023/09/23 10:53:30;;;;;;;1.90;1.52;;;;;;;14.53;68.83;92789.81;2026077;70;20184;-74
2023/09/23 10:56:02;;;;;;;3.13;1.50;;;;;;;14.47;69.75;92793.03;2026025;70;20157;-76
2023/09/23 10:58:31;;;;;;;3.28;1.80;;;;;;;14.64;69.61;92803.06;2025909;70;20225;-80
2023/09/23 11:00:57;;;;;;;2.20;2.00;;;;;;;14.36;68.88;92805.25;2028163;70;20147;-77
2023/09/23 11:03:23;;;;;;;2.55;1.90;;;;;;;14.61;68.78;92799.41;2027085;70;20155;-75
2023/09/23 11:05:51;;;;;;;3.03;1.70;;;;;;;14.71;69.05;92799.91;2029668;70;20234;-76
2023/09/23 11:08:19;;;;;;;3.10;2.53;;;;;;;14.85;69.45;92801.94;2029492;70;20203;-76
2023/09/23 11:10:48;;;;;;;2.90;2.00;;;;;;;14.91;68.84;92808.63;2029529;70;20156;-80
2023/09/23 11:13:14;;;;;;;2.80;1.83;;;;;;;14.96;70.60;92812.38;2029091;70;20266;-78
2023/09/23 11:15:45;;;;;;;3.42;2.28;;;;;;;15.00;68.10;92812.56;2029013;70;20157;-75
2023/09/23 11:18:16;;;;;;;2.45;1.48;;;;;;;14.66;68.51;92803.91;2029367;70;20154;-73
2023/09/23 11:20:44;;;;;;;1.73;1.17;;;;;;;14.40;68.21;92806.19;2029156;70;20153;-74
2023/09/23 11:23:10;;;;;;;2.40;1.60;;;;;;;14.75;69.02;92816.34;2029350;70;20281;-74
2023/09/23 11:25:42;;;;;;;3.17;1.60;;;;;;;14.86;69.06;92815.47;2029391;70;20152;-76
2023/09/23 11:28:28;;;;;;;12.32;7.70;;;;;;;14.66;70.09;92811.66;2029383;70;20183;-74
2023/09/23 11:30:55;;;;;;;6.57;3.78;;;;;;;14.96;69.20;92813.09;2029364;70;20708;-84
2023/09/23 11:33:21;;;;;;;15.98;9.68;;;;;;;15.27;70.85;92811.66;2029288;70;20160;-73
2023/09/23 11:35:47;;;;;;;4.90;2.58;;;;;;;15.21;72.22;92814.22;2029443;70;20148;-74
2023/09/23 11:38:13;;;;;;;7.10;4.20;;;;;;;15.45;71.41;92815.31;2029136;70;20168;-73
2023/09/23 11:40:40;;;;;;;3.38;2.17;;;;;;;15.46;72.04;92811.09;2029006;70;20176;-74
2023/09/23 11:43:05;;;;;;;4.20;2.75;;;;;;;15.60;72.12;92811.00;2029117;70;20217;-75
2023/09/23 11:45:34;;;;;;;11.48;4.45;;;;;;;15.68;71.93;92805.72;2029097;70;20515;-74
2023/09/23 11:48:03;;;;;;;2.10;1.48;;;;;;;15.81;70.86;92806.97;2029007;70;20543;-78
2023/09/23 11:50:29;;;;;;;2.63;1.80;;;;;;;15.83;69.92;92809.16;2029483;70;20192;-81
2023/09/23 11:52:55;;;;;;;2.92;1.58;;;;;;;15.98;68.83;92817.63;2029672;70;20156;-78
2023/09/23 11:55:25;;;;;;;1.15;0.90;;;;;;;15.41;65.44;92811.56;2029678;70;20145;-79
2023/09/23 11:57:52;;;;;;;3.97;1.13;;;;;;;15.83;64.31;92806.31;2029277;70;20153;-75
2023/09/23 12:00:20;;;;;;;1.95;1.35;;;;;;;15.45;65.19;92803.25;2029402;70;20513;-78
2023/09/23 12:02:48;;;;;;;2.67;1.10;;;;;;;15.51;64.23;92807.06;2029262;70;20659;-75
2023/09/23 12:05:16;;;;;;;1.92;1.25;;;;;;;16.25;63.93;92799.59;2029206;70;20616;-78
2023/09/23 12:07:45;;;;;;;1.42;1.00;;;;;;;16.47;62.81;92801.91;2029286;70;20224;-78
2023/09/23 12:10:13;;;;;;;1.48;1.10;;;;;;;16.06;63.22;92805.16;2028792;70;20145;-76
2023/09/23 12:12:39;;;;;;;3.30;1.30;;;;;;;15.91;62.54;92803.84;2029358;70;20188;-76
2023/09/23 12:15:08;;;;;;;1.25;1.00;;;;;;;15.82;62.69;92813.38;2028144;70;20259;-75
2023/09/23 12:17:35;;;;;;;2.13;1.27;;;;;;;15.45;64.84;92803.97;2028009;70;20320;-74
2023/09/23 12:20:01;;;;;;;4.22;2.50;;;;;;;15.80;65.05;92808.31;2028671;70;20197;-75
2023/09/23 12:22:27;;;;;;;2.03;1.52;;;;;;;15.95;63.99;92813.25;2027809;70;20244;-75
2023/09/23 12:24:52;;;;;;;2.20;1.80;;;;;;;16.04;64.54;92819.28;2025626;70;20184;-74
2023/09/23 12:27:21;;;;;;;1.42;1.00;;;;;;;15.48;64.38;92816.13;2027346;70;20195;-76
2023/09/23 12:29:47;;;;;;;1.10;0.82;;;;;;;15.68;63.82;92822.75;2028703;70;20213;-78
2023/09/23 12:32:15;;;;;;;1.50;1.15;;;;;;;15.94;64.45;92823.16;2024376;71;20176;-77
2023/09/23 12:34:41;;;;;;;2.35;1.33;;;;;;;15.80;64.69;92819.69;2028609;70;20164;-74
2023/09/23 12:37:08;;;;;;;2.30;0.93;;;;;;;14.81;64.93;92816.66;2028412;70;20547;-75
2023/09/23 12:39:36;;;;;;;1.13;0.95;;;;;;;14.68;65.58;92814.59;2028324;70;20653;-76
2023/09/23 12:42:02;;;;;;;5.45;3.20;;;;;;;15.13;65.83;92814.59;2028910;70;20493;-78
2023/09/23 12:44:28;;;;;;;4.97;3.40;;;;;;;14.75;67.80;92822.00;2029181;70;20176;-77
2023/09/23 12:46:53;;;;;;;2.10;1.40;;;;;;;15.09;67.70;92842.03;2027723;70;20176;-79
2023/09/23 12:49:19;;;;;;;2.22;1.50;;;;;;;15.21;69.81;92826.31;2027319;70;20251;-78
2023/09/23 12:51:45;;;;;;;2.40;1.50;;;;;;;15.26;68.91;92830.06;2028935;70;20149;-76
2023/09/23 12:54:11;;;;;;;2.38;1.50;;;;;;;15.59;67.63;92828.69;2029008;70;20149;-76
2023/09/23 12:56:38;;;;;;;2.45;1.30;;;;;;;15.71;66.78;92832.81;2029234;70;20165;-75
2023/09/23 12:59:07;;;;;;;1.10;1.00;;;;;;;15.71;68.20;92840.56;2028261;70;20283;-77
2023/09/23 13:01:34;;;;;;;1.85;1.35;;;;;;;15.79;68.79;92843.78;2025781;70;20636;-77
2023/09/23 13:04:02;;;;;;;2.10;1.02;;;;;;;15.65;67.81;92841.03;2027376;70;20246;-78
2023/09/23 13:06:28;;;;;;;2.42;1.10;;;;;;;15.71;69.62;92843.41;2026172;71;20153;-76
2023/09/23 13:08:54;;;;;;;3.00;1.60;;;;;;;15.74;68.12;92842.13;2026983;70;20177;-77
2023/09/23 13:11:22;;;;;;;1.20;1.10;;;;;;;15.96;69.24;92845.94;2026815;70;20244;-78
2023/09/23 13:13:49;;;;;;;1.30;1.15;;;;;;;16.41;65.91;92849.97;2025329;70;20141;-78
2023/09/23 13:16:15;;;;;;;1.92;1.10;;;;;;;16.52;66.29;92857.50;2025392;70;20141;-80
2023/09/23 13:18:41;;;;;;;2.28;1.00;;;;;;;15.80;66.82;92865.09;2024682;70;20156;-78
2023/09/23 13:21:08;;;;;;;1.30;1.10;;;;;;;15.87;64.77;92858.31;2024987;70;20221;-76
2023/09/23 13:23:36;;;;;;;3.28;1.00;;;;;;;15.59;64.73;92862.72;2025149;70;20215;-75
2023/09/23 13:26:02;;;;;;;1.77;1.20;;;;;;;15.99;64.86;92867.38;2024577;70;20165;-76
2023/09/23 13:28:27;;;;;;;1.50;1.10;;;;;;;16.46;63.82;92857.25;2025305;71;20225;-75
2023/09/23 13:30:53;;;;;;;2.08;1.10;;;;;;;16.48;62.87;92866.59;2025317;70;20164;-76
2023/09/23 13:33:22;;;;;;;1.65;0.95;;;;;;;16.57;63.35;92866.94;2024841;70;20573;-78
2023/09/23 13:35:49;;;;;;;1.38;0.70;;;;;;;16.37;63.37;92861.88;2028536;70;20251;-78
2023/09/23 13:38:15;;;;;;;1.73;0.88;;;;;;;15.53;64.80;92866.00;2028608;70;20184;-78
2023/09/23 13:40:40;;;;;;;0.90;0.70;;;;;;;16.17;63.59;92863.84;2029421;70;20243;-76
2023/09/23 13:43:07;;;;;;;1.10;0.70;;;;;;;16.50;62.83;92866.69;2029499;70;20241;-77
2023/09/23 13:45:33;;;;;;;1.30;0.70;;;;;;;16.05;63.72;92874.69;2027661;70;20160;-77
2023/09/23 13:47:59;;;;;;;1.73;0.80;;;;;;;15.95;63.65;92863.63;2029096;70;20172;-77
2023/09/23 13:50:25;;;;;;;3.63;0.75;;;;;;;16.09;63.45;92872.03;2028239;70;20616;-76
2023/09/23 13:52:51;;;;;;;1.23;0.57;;;;;;;16.09;63.54;92872.03;2025791;70;20295;-78
2023/09/23 13:55:17;;;;;;;1.15;0.80;;;;;;;16.52;62.41;92868.88;2026642;70;20169;-76
2023/09/23 13:57:46;;;;;;;0.90;0.80;;;;;;;16.47;62.36;92867.25;2028370;70;20256;-78
2023/09/23 14:00:12;;;;;;;3.15;0.90;;;;;;;16.36;61.72;92873.91;2028784;70;20806;-77
2023/09/23 14:02:39;;;;;;;1.20;0.60;;;;;;;15.65;63.04;92868.69;2028715;70;20229;-77
2023/09/23 14:05:05;;;;;;;0.90;0.73;;;;;;;15.80;63.96;92861.53;2026383;70;20177;-77
2023/09/23 14:07:32;;;;;;;0.90;0.70;;;;;;;15.78;63.35;92861.47;2026426;70;20241;-81
2023/09/23 14:09:58;;;;;;;1.23;0.70;;;;;;;16.21;62.68;92856.22;2029428;70;20145;-79
2023/09/23 14:12:26;;;;;;;1.00;0.70;;;;;;;16.01;62.69;92864.63;2026899;70;20576;-77
2023/09/23 14:14:54;;;;;;;3.05;1.08;;;;;;;16.21;63.18;92870.44;2025327;70;20498;-75
2023/09/23 14:17:22;;;;;;;1.48;1.02;;;;;;;16.62;62.46;92871.41;2026454;70;20213;-76
2023/09/23 14:19:50;;;;;;;3.33;1.10;;;;;;;16.23;63.34;92872.66;2029581;70;20188;-76
2023/09/23 14:22:16;;;;;;;3.17;0.80;;;;;;;16.11;63.74;92866.44;2029683;70;20229;-78
2023/09/23 14:24:42;;;;;;;2.90;0.98;;;;;;;15.67;63.09;92872.38;2029058;70;20210;-76
2023/09/23 14:27:08;;;;;;;3.05;1.00;;;;;;;16.39;62.17;92866.91;2028941;70;20153;-77
2023/09/23 14:29:33;;;;;;;1.13;0.90;;;;;;;15.87;63.28;92874.63;2026623;70;20213;-77
2023/09/23 14:31:59;;;;;;;0.98;0.77;;;;;;;16.13;63.05;92878.63;2024807;71;20152;-76
2023/09/23 14:34:25;;;;;;;1.02;0.80;;;;;;;15.79;63.43;92882.78;2026287;70;20161;-76
2023/09/23 14:36:53;;;;;;;0.80;0.68;;;;;;;15.96;62.89;92882.84;2026360;70;20149;-76
2023/09/23 14:39:20;;;;;;;1.05;0.90;;;;;;;15.72;64.83;92879.69;2025862;71;20160;-76
2023/09/23 14:41:47;;;;;;;1.52;0.88;;;;;;;15.63;65.14;92879.94;2026361;70;20188;-76
2023/09/23 14:44:12;;;;;;;1.45;0.90;;;;;;;16.19;66.25;92887.41;2026508;70;20717;-76
2023/09/23 14:46:39;;;;;;;1.02;0.70;;;;;;;16.57;66.72;92896.06;2026281;71;20207;-77
2023/09/23 14:49:04;;;;;;;0.88;0.73;;;;;;;16.55;66.76;92898.84;2025918;70;20280;-75
2023/09/23 14:51:30;;;;;;;0.80;0.80;;;;;;;16.31;67.76;92900.66;2026297;70;20626;-76
2023/09/23 14:53:55;;;;;;;3.28;1.00;;;;;;;15.99;65.25;92895.03;2026041;70;20141;-77
2023/09/23 14:56:21;;;;;;;2.17;1.00;;;;;;;15.94;65.64;92896.97;2026268;70;20165;-79
2023/09/23 14:58:48;;;;;;;2.53;0.77;;;;;;;16.18;67.22;92907.94;2026505;70;20196;-78
2023/09/23 15:01:13;;;;;;;0.80;0.70;;;;;;;16.25;67.34;92913.22;2026308;70;20294;-78
2023/09/23 15:03:39;;;;;;;1.65;1.00;;;;;;;16.30;66.85;92916.97;2025840;70;20213;-76
2023/09/23 15:06:08;;;;;;;1.60;0.85;;;;;;;16.26;67.09;92916.78;2025709;70;20144;-76
2023/09/23 15:08:35;;;;;;;1.67;0.90;;;;;;;16.26;67.24;92920.38;2026124;70;20161;-76
2023/09/23 15:11:01;;;;;;;2.25;1.00;;;;;;;16.41;66.12;92915.31;2026366;70;20153;-76
2023/09/23 15:13:27;;;;;;;1.98;0.90;;;;;;;16.24;66.23;92920.28;2025733;70;20142;-76
2023/09/23 15:15:58;;;;;;;1.20;0.88;;;;;;;16.46;66.68;92920.50;2025818;70;20244;-75
2023/09/23 15:18:24;;;;;;;1.00;0.90;;;;;;;16.51;67.04;92912.88;2026359;70;20188;-76
2023/09/23 15:20:49;;;;;;;1.48;0.90;;;;;;;16.55;67.46;92918.75;2028493;70;20249;-76
2023/09/23 15:23:15;;;;;;;1.45;0.95;;;;;;;16.40;67.98;92925.19;2028485;70;20153;-78
2023/09/23 15:25:40;;;;;;;4.28;1.10;;;;;;;16.36;68.24;92922.19;2026588;70;20165;-77
2023/09/23 15:28:07;;;;;;;3.13;1.80;;;;;;;16.31;66.91;92923.38;2027887;70;20587;-78
2023/09/23 15:30:34;;;;;;;1.83;1.00;;;;;;;16.28;67.84;92925.41;2025716;70;20153;-78
2023/09/23 15:33:00;;;;;;;2.35;0.90;;;;;;;16.16;67.48;92927.72;2026155;70;20179;-78
2023/09/23 15:35:27;;;;;;;3.35;1.55;;;;;;;16.23;67.61;92929.44;2026481;70;20145;-77
2023/09/23 15:37:52;;;;;;;1.58;1.00;;;;;;;16.20;68.48;92936.41;2026211;70;20164;-77
2023/09/23 15:40:18;;;;;;;1.50;1.00;;;;;;;16.13;68.93;92926.16;2026362;70;20606;-76
2023/09/23 15:42:44;;;;;;;2.05;0.80;;;;;;;16.08;69.19;92933.03;2026197;71;20177;-77
2023/09/23 15:45:11;;;;;;;1.95;1.10;;;;;;;15.96;69.52;92933.97;2026831;70;20164;-75
2023/09/23 15:47:39;;;;;;;3.15;0.90;;;;;;;15.96;68.83;92938.91;2029565;70;20663;-75
2023/09/23 15:50:06;;;;;;;2.33;0.70;;;;;;;16.04;68.14;92935.72;2028514;70;20180;-75
2023/09/23 15:52:33;;;;;;;2.13;1.00;;;;;;;16.09;68.06;92935.25;2028001;70;20247;-76
2023/09/23 15:54:59;;;;;;;3.83;1.10;;;;;;;15.88;68.83;92932.88;2029252;70;20188;-76
2023/09/23 15:57:26;;;;;;;2.20;1.00;;;;;;;15.67;69.54;92936.91;2029581;70;20898;-78
2023/09/23 15:59:53;;;;;;;2.10;1.10;;;;;;;15.79;69.63;92948.78;2029458;70;20144;-77
2023/09/23 16:02:20;;;;;;;1.25;0.88;;;;;;;15.82;69.35;92947.53;2028937;70;20638;-77
2023/09/23 16:04:48;;;;;;;2.00;1.10;;;;;;;15.62;70.11;92949.38;2028453;70;20169;-77
2023/09/23 16:07:14;;;;;;;1.75;0.93;;;;;;;15.55;69.98;92956.91;2026379;70;20183;-77
2023/09/23 16:09:40;;;;;;;4.93;1.30;;;;;;;15.50;69.98;92955.97;2026247;70;20602;-77
2023/09/23 16:12:07;;;;;;;2.58;0.90;;;;;;;15.57;69.83;92961.94;2025861;70;20145;-77
2023/09/23 16:14:33;;;;;;;1.35;0.90;;;;;;;15.46;70.29;92961.47;2026198;70;20236;-77
2023/09/23 16:16:59;;;;;;;2.30;1.23;;;;;;;15.41;70.57;92956.97;2026156;70;20173;-77
2023/09/23 16:19:24;;;;;;;2.38;1.10;;;;;;;15.20;71.15;92958.09;2026381;70;20233;-77
2023/09/23 16:21:51;;;;;;;4.57;1.25;;;;;;;15.23;71.29;92968.19;2026284;70;20168;-77
2023/09/23 16:24:17;;;;;;;1.80;1.20;;;;;;;14.83;73.09;92971.88;2026140;70;20145;-76
2023/09/23 16:26:42;;;;;;;3.72;1.60;;;;;;;14.98;72.33;92980.47;2026149;70;20151;-75
2023/09/23 16:29:08;;;;;;;2.38;1.27;;;;;;;14.84;73.09;92990.34;2026029;70;20575;-76
2023/09/23 16:31:34;;;;;;;2.00;1.35;;;;;;;14.88;72.32;92999.06;2026210;70;20271;-76
2023/09/23 16:33:59;;;;;;;2.08;1.20;;;;;;;14.88;72.75;92999.78;2026258;70;20255;-76
2023/09/23 16:36:25;;;;;;;1.80;1.30;;;;;;;14.69;73.05;92997.41;2026421;70;20137;-76
2023/09/23 16:38:51;;;;;;;4.60;1.40;;;;;;;14.65;73.78;93000.03;2025998;70;20157;-76
2023/09/23 16:41:17;;;;;;;1.48;1.13;;;;;;;14.64;73.75;93004.97;2025937;70;20160;-77
2023/09/23 16:43:43;;;;;;;1.77;1.35;;;;;;;14.64;73.53;93010.63;2025405;70;20188;-77
2023/09/23 16:46:08;;;;;;;2.88;1.05;;;;;;;14.41;74.38;93016.50;2026222;70;20144;-77
2023/09/23 16:48:35;;;;;;;4.07;1.00;;;;;;;14.40;74.20;93004.44;2026904;70;20589;-78
2023/09/23 16:51:00;;;;;;;4.03;0.90;;;;;;;14.37;74.16;93022.69;2027865;71;20164;-84
2023/09/23 16:53:26;;;;;;;1.48;0.73;;;;;;;14.41;73.46;93028.56;2028105;70;20153;-83
2023/09/23 16:55:56;;;;;;;1.10;0.80;;;;;;;14.33;72.79;93039.47;2026520;71;20157;-80
2023/09/23 16:58:22;;;;;;;2.60;1.00;;;;;;;14.22;72.36;93045.97;2025714;70;20617;-80
2023/09/23 17:00:52;;;;;;;2.65;0.95;;;;;;;14.25;72.27;93050.38;2027978;70;20175;-81
2023/09/23 17:03:18;;;;;;;2.45;0.93;;;;;;;13.99;73.78;93055.38;2026356;70;20161;-80
2023/09/23 17:05:50;;;;;;;5.43;1.00;;;;;;;14.02;74.01;93065.47;2026149;71;20148;-81
2023/09/23 17:08:16;;;;;;;2.05;1.00;;;;;;;13.98;73.11;93068.06;2026418;70;20141;-78
2023/09/23 17:10:44;;;;;;;1.55;0.90;;;;;;;13.93;72.49;93066.38;2026186;70;20181;-78
2023/09/23 17:13:13;;;;;;;1.85;0.90;;;;;;;13.91;72.34;93069.81;2030120;70;20109;-77
2023/09/23 17:15:41;;;;;;;1.23;0.90;;;;;;;13.82;72.99;93076.38;2030088;70;20236;-78
2023/09/23 17:18:07;;;;;;;0.85;0.80;;;;;;;13.68;72.72;93078.44;2029648;70;20154;-77
2023/09/23 17:20:35;;;;;;;2.17;0.90;;;;;;;13.77;72.01;93088.84;2029618;70;20157;-77
2023/09/23 17:23:05;;;;;;;1.75;1.10;;;;;;;13.76;72.50;93093.03;2029975;70;20561;-77
2023/09/23 17:25:31;;;;;;;1.50;1.00;;;;;;;13.80;72.08;93101.75;2029484;70;20200;-78
2023/09/23 17:27:58;;;;;;;2.17;0.93;;;;;;;13.60;72.69;93100.63;2027941;70;20271;-77
2023/09/23 17:30:27;;;;;;;2.08;1.20;;;;;;;13.45;73.78;93107.56;2027584;70;20654;-78
2023/09/23 17:32:53;;;;;;;1.40;1.10;;;;;;;13.20;74.45;93100.50;2029738;70;20119;-78
2023/09/23 17:35:19;;;;;;;1.95;1.27;;;;;;;13.38;73.96;93114.25;2030033;70;20232;-78
2023/09/23 17:37:45;;;;;;;2.53;1.13;;;;;;;13.37;73.87;93113.50;2029525;70;20155;-77
2023/09/23 17:40:10;;;;;;;1.70;1.20;;;;;;;13.30;73.46;93117.34;2030134;70;20137;-78
2023/09/23 17:42:36;;;;;;;3.20;1.10;;;;;;;13.33;73.66;93118.94;2029846;70;20574;-78
2023/09/23 17:45:04;;;;;;;2.88;1.20;;;;;;;13.33;73.08;93113.28;2029586;70;20216;-78
2023/09/23 17:47:33;;;;;;;1.70;1.00;;;;;;;13.20;73.56;93119.56;2029633;70;20155;-78
2023/09/23 17:49:59;;;;;;;1.75;1.05;;;;;;;13.21;73.43;93121.78;2029458;70;20148;-79
2023/09/23 17:52:25;;;;;;;1.25;0.90;;;;;;;13.14;73.39;93125.59;2026449;70;20149;-79
2023/09/23 17:54:56;;;;;;;2.20;1.00;;;;;;;13.13;73.35;93126.22;2029003;70;20329;-78
2023/09/23 17:57:23;;;;;;;1.88;1.00;;;;;;;13.14;73.23;93122.75;2029771;70;20247;-79
2023/09/23 17:59:50;;;;;;;1.75;0.95;;;;;;;13.02;73.82;93122.06;2029909;70;20153;-79
2023/09/23 18:02:16;;;;;;;4.03;1.10;;;;;;;13.00;74.03;93132.50;2029677;70;20223;-78
2023/09/23 18:04:43;;;;;;;1.48;0.88;;;;;;;12.99;73.83;93140.25;2029900;70;20505;-80
2023/09/23 18:07:09;;;;;;;3.75;1.10;;;;;;;12.96;73.90;93147.88;2029164;70;20172;-78
2023/09/23 18:09:36;;;;;;;2.08;0.80;;;;;;;12.87;73.69;93131.78;2029782;70;20296;-78
2023/09/23 18:12:02;;;;;;;2.22;1.10;;;;;;;12.90;73.85;93147.50;2029247;70;20216;-78
2023/09/23 18:14:28;;;;;;;2.45;1.10;;;;;;;12.81;74.17;93150.47;2029777;70;20239;-78
2023/09/23 18:16:55;;;;;;;2.15;1.02;;;;;;;12.84;73.82;93143.59;2029704;70;20167;-78
2023/09/23 18:19:20;;;;;;;2.65;1.00;;;;;;;12.89;73.81;93150.97;2029124;70;20708;-78
2023/09/23 18:21:46;;;;;;;1.50;1.00;;;;;;;12.38;74.91;93108.38;2028461;70;20683;-78
2023/09/23 18:24:12;;;;;;;3.45;1.10;;;;;;;12.72;74.89;93158.47;2028871;70;20176;-78
2023/09/23 18:26:39;;;;;;;1.98;0.82;;;;;;;12.71;74.81;93164.72;2029558;70;20156;-78
2023/09/23 18:29:04;;;;;;;3.10;1.17;;;;;;;12.67;74.85;93161.66;2029206;70;20261;-78
2023/09/23 18:31:32;;;;;;;3.72;1.20;;;;;;;12.77;74.44;93173.56;2029645;70;20523;-78
2023/09/23 18:33:58;;;;;;;1.52;0.98;;;;;;;12.66;74.78;93177.88;2029632;70;20259;-78
2023/09/23 18:36:24;;;;;;;3.78;1.05;;;;;;;12.62;75.23;93185.38;2029650;70;20230;-78
2023/09/23 18:38:50;;;;;;;3.20;1.17;;;;;;;12.58;75.24;93180.19;2029751;70;20224;-78
2023/09/23 18:41:17;;;;;;;2.22;1.10;;;;;;;12.62;74.93;93186.09;2029504;70;20152;-78
2023/09/23 18:43:43;;;;;;;2.03;1.02;;;;;;;12.63;74.51;93186.84;2029070;70;20140;-78
2023/09/23 18:46:11;;;;;;;1.85;1.10;;;;;;;12.55;75.11;93201.19;2028857;70;20135;-78
2023/09/23 18:48:36;;;;;;;1.65;1.02;;;;;;;12.50;74.68;93195.91;2026415;70;20524;-78
2023/09/23 18:51:03;;;;;;;4.95;1.13;;;;;;;12.47;74.98;93206.34;2029864;70;20171;-78
2023/09/23 18:53:32;;;;;;;1.50;0.90;;;;;;;12.50;75.28;93212.84;2029280;70;20164;-78
2023/09/23 18:55:59;;;;;;;1.50;1.00;;;;;;;12.47;75.85;93217.66;2029950;70;20159;-78
2023/09/23 18:58:25;;;;;;;1.58;1.10;;;;;;;12.53;75.38;93225.75;2029062;70;20222;-78
2023/09/23 19:00:52;;;;;;;1.45;1.00;;;;;;;12.55;75.24;93223.78;2029316;70;20156;-77
2023/09/23 19:03:17;;;;;;;3.45;1.15;;;;;;;12.55;75.40;93228.69;2029293;70;20156;-78
2023/09/23 19:05:43;;;;;;;1.85;0.95;;;;;;;12.47;75.54;93240.25;2029585;70;20554;-78
2023/09/23 19:08:10;;;;;;;2.22;1.08;;;;;;;12.35;76.27;93233.81;2029614;70;20156;-78
2023/09/23 19:10:36;;;;;;;3.65;1.15;;;;;;;12.40;76.30;93238.38;2029102;70;20151;-77
2023/09/23 19:13:04;;;;;;;2.08;0.90;;;;;;;12.35;76.46;93253.59;2029716;70;20121;-77
2023/09/23 19:15:29;;;;;;;2.22;1.00;;;;;;;12.39;76.43;93251.75;2029773;70;20133;-78
2023/09/23 19:17:56;;;;;;;1.42;1.10;;;;;;;12.43;76.41;93254.09;2029143;70;20161;-78
2023/09/23 19:20:26;;;;;;;1.40;0.90;;;;;;;12.37;76.27;93260.13;2029577;70;20141;-78
2023/09/23 19:22:58;;;;;;;2.38;1.33;;;;;;;12.40;75.87;93258.13;2029267;70;20140;-78
2023/09/23 19:25:25;;;;;;;1.85;1.20;;;;;;;12.42;76.17;93269.56;2029745;70;20701;-78
2023/09/23 19:27:52;;;;;;;1.80;1.25;;;;;;;12.39;76.56;93268.69;2029286;70;20157;-78
2023/09/23 19:30:20;;;;;;;2.45;1.10;;;;;;;12.31;76.65;93264.63;2029027;70;20148;-78
2023/09/23 19:32:46;;;;;;;2.20;1.10;;;;;;;12.36;76.28;93272.00;2029612;70;20180;-78
2023/09/23 19:35:12;;;;;;;2.22;1.10;;;;;;;12.34;76.69;93275.44;2029787;70;20636;-78
2023/09/23 19:37:38;;;;;;;6.22;0.98;;;;;;;12.35;76.86;93274.09;2029440;70;20554;-78
2023/09/23 19:40:06;;;;;;;2.35;1.20;;;;;;;12.38;77.05;93274.97;2029708;70;20208;-78
2023/09/23 19:42:35;;;;;;;4.75;1.13;;;;;;;12.43;76.32;93271.06;2029756;70;20165;-78
2023/09/23 19:45:03;;;;;;;4.15;1.27;;;;;;;12.44;76.05;93269.69;2029158;70;20172;-77
2023/09/23 19:47:30;;;;;;;2.90;1.02;;;;;;;12.45;75.93;93279.63;2026327;70;20176;-78
2023/09/23 19:49:59;;;;;;;2.35;1.17;;;;;;;12.29;77.22;93272.97;2026176;70;20649;-77
2023/09/23 19:52:26;;;;;;;1.90;0.95;;;;;;;12.30;77.16;93269.53;2025857;70;20236;-78